sensor_id;sensor_type;location;lat;lon;timestamp;pressure;altitude;pressure_sealevel;temperature;humidity
46087;BME280;31824;49.648;8.640;2023-04-05T00:01:04;101023.94;;;2.78;100.00
46087;BME280;31824;49.648;8.640;2023-04-05T00:04:08;101022.38;;;3.11;100.00
46087;BME280;31824;49.648;8.640;2023-04-05T00:07:10;101014.81;;;2.74;100.00
46087;BME280;31824;49.648;8.640;2023-04-05T00:10:33;101019.50;;;2.32;100.00
46087;BME280;31824;49.648;8.640;2023-04-05T00:13:35;101022.50;;;2.23;100.00
46087;BME280;31824;49.648;8.640;2023-04-05T00:16:38;101015.91;;;2.06;100.00
46087;BME280;31824;49.648;8.640;2023-04-05T00:19:40;101016.28;;;1.96;100.00
46087;BME280;31824;49.648;8.640;2023-04-05T00:22:44;101016.63;;;2.05;100.00
46087;BME280;31824;49.648;8.640;2023-04-05T00:25:47;101011.50;;;1.87;100.00
46087;BME280;31824;49.648;8.640;2023-04-05T00:28:52;101013.63;;;1.83;100.00
46087;BME280;31824;49.648;8.640;2023-04-05T00:31:56;101012.78;;;1.77;100.00
46087;BME280;31824;49.648;8.640;2023-04-05T00:34:58;101010.91;;;1.58;100.00
46087;BME280;31824;49.648;8.640;2023-04-05T00:37:59;101005.75;;;1.58;100.00
46087;BME280;31824;49.648;8.640;2023-04-05T00:41:02;101004.75;;;1.44;100.00
46087;BME280;31824;49.648;8.640;2023-04-05T00:44:05;101006.34;;;1.31;100.00
46087;BME280;31824;49.648;8.640;2023-04-05T00:47:10;101000.63;;;1.15;100.00
46087;BME280;31824;49.648;8.640;2023-04-05T00:50:17;101004.97;;;1.03;100.00
46087;BME280;31824;49.648;8.640;2023-04-05T00:53:19;101000.56;;;1.02;100.00
46087;BME280;31824;49.648;8.640;2023-04-05T00:56:21;100992.94;;;1.09;100.00
46087;BME280;31824;49.648;8.640;2023-04-05T00:59:25;100987.63;;;1.02;100.00
46087;BME280;31824;49.648;8.640;2023-04-05T01:02:31;100987.88;;;0.98;100.00
46087;BME280;31824;49.648;8.640;2023-04-05T01:05:39;100988.31;;;1.01;100.00
46087;BME280;31824;49.648;8.640;2023-04-05T01:08:53;100985.56;;;0.94;100.00
46087;BME280;31824;49.648;8.640;2023-04-05T01:12:04;100989.69;;;1.05;100.00
46087;BME280;31824;49.648;8.640;2023-04-05T01:15:10;100986.13;;;0.86;100.00
46087;BME280;31824;49.648;8.640;2023-04-05T01:18:14;100976.88;;;0.93;100.00
46087;BME280;31824;49.648;8.640;2023-04-05T01:25:21;100973.72;;;0.83;100.00
46087;BME280;31824;49.648;8.640;2023-04-05T01:28:46;100972.38;;;0.74;100.00
46087;BME280;31824;49.648;8.640;2023-04-05T01:31:59;100973.72;;;0.59;100.00
46087;BME280;31824;49.648;8.640;2023-04-05T01:35:08;100972.31;;;0.55;100.00
46087;BME280;31824;49.648;8.640;2023-04-05T01:38:17;100968.69;;;0.42;100.00
46087;BME280;31824;49.648;8.640;2023-04-05T01:41:20;100965.00;;;0.34;100.00
46087;BME280;31824;49.648;8.640;2023-04-05T01:44:23;100964.75;;;0.38;100.00
46087;BME280;31824;49.648;8.640;2023-04-05T01:47:26;100957.97;;;0.33;100.00
46087;BME280;31824;49.648;8.640;2023-04-05T01:50:28;100954.97;;;0.24;100.00
46087;BME280;31824;49.648;8.640;2023-04-05T01:53:32;100956.75;;;0.37;100.00
46087;BME280;31824;49.648;8.640;2023-04-05T01:56:34;100954.88;;;0.60;100.00
46087;BME280;31824;49.648;8.640;2023-04-05T01:59:39;100951.78;;;0.62;100.00
46087;BME280;31824;49.648;8.640;2023-04-05T02:02:45;100945.78;;;0.75;100.00
46087;BME280;31824;49.648;8.640;2023-04-05T02:05:47;100954.59;;;0.88;100.00
46087;BME280;31824;49.648;8.640;2023-04-05T02:08:48;100947.13;;;0.60;100.00
46087;BME280;31824;49.648;8.640;2023-04-05T02:11:50;100944.66;;;0.48;100.00
46087;BME280;31824;49.648;8.640;2023-04-05T02:14:52;100950.81;;;0.19;100.00
46087;BME280;31824;49.648;8.640;2023-04-05T02:17:56;100954.31;;;0.20;100.00
46087;BME280;31824;49.648;8.640;2023-04-05T02:21:00;100951.59;;;0.07;100.00
46087;BME280;31824;49.648;8.640;2023-04-05T02:24:04;100959.25;;;-0.12;100.00
46087;BME280;31824;49.648;8.640;2023-04-05T02:27:06;100953.34;;;-0.05;100.00
46087;BME280;31824;49.648;8.640;2023-04-05T02:30:09;100955.97;;;-0.11;100.00
46087;BME280;31824;49.648;8.640;2023-04-05T02:33:12;100949.16;;;-0.10;100.00
46087;BME280;31824;49.648;8.640;2023-04-05T02:36:14;100952.31;;;-0.24;100.00
46087;BME280;31824;49.648;8.640;2023-04-05T02:39:19;100956.38;;;-0.38;100.00
46087;BME280;31824;49.648;8.640;2023-04-05T02:42:22;100951.38;;;-0.30;100.00
46087;BME280;31824;49.648;8.640;2023-04-05T02:45:24;100949.72;;;-0.24;100.00
46087;BME280;31824;49.648;8.640;2023-04-05T02:48:32;100943.63;;;-0.30;100.00
46087;BME280;31824;49.648;8.640;2023-04-05T02:51:36;100955.44;;;-0.44;100.00
46087;BME280;31824;49.648;8.640;2023-04-05T02:54:42;100946.47;;;-0.35;100.00
46087;BME280;31824;49.648;8.640;2023-04-05T02:57:48;100952.94;;;-0.55;100.00
46087;BME280;31824;49.648;8.640;2023-04-05T03:01:05;100951.28;;;-0.55;100.00
46087;BME280;31824;49.648;8.640;2023-04-05T03:04:09;100950.59;;;-0.54;100.00
46087;BME280;31824;49.648;8.640;2023-04-05T03:07:15;100946.41;;;-0.64;100.00
46087;BME280;31824;49.648;8.640;2023-04-05T03:10:24;100944.34;;;-0.73;100.00
46087;BME280;31824;49.648;8.640;2023-04-05T03:13:39;100940.81;;;-0.68;100.00
46087;BME280;31824;49.648;8.640;2023-04-05T03:16:48;100939.53;;;-0.47;100.00
46087;BME280;31824;49.648;8.640;2023-04-05T03:20:13;100943.09;;;-0.58;100.00
46087;BME280;31824;49.648;8.640;2023-04-05T03:23:15;100951.28;;;-0.49;100.00
46087;BME280;31824;49.648;8.640;2023-04-05T03:26:19;100937.28;;;-0.68;100.00
46087;BME280;31824;49.648;8.640;2023-04-05T03:29:26;100930.56;;;-0.79;100.00
46087;BME280;31824;49.648;8.640;2023-04-05T03:33:08;100941.34;;;-0.81;100.00
46087;BME280;31824;49.648;8.640;2023-04-05T03:36:21;100938.53;;;-0.83;100.00
46087;BME280;31824;49.648;8.640;2023-04-05T03:39:26;100934.25;;;-0.71;100.00
46087;BME280;31824;49.648;8.640;2023-04-05T03:42:30;100937.53;;;-0.66;100.00
46087;BME280;31824;49.648;8.640;2023-04-05T03:45:32;100929.31;;;-0.70;100.00
46087;BME280;31824;49.648;8.640;2023-04-05T03:48:35;100924.66;;;-0.78;100.00
46087;BME280;31824;49.648;8.640;2023-04-05T03:51:39;100927.00;;;-0.74;100.00
46087;BME280;31824;49.648;8.640;2023-04-05T03:54:41;100919.41;;;-0.55;100.00
46087;BME280;31824;49.648;8.640;2023-04-05T03:57:44;100922.41;;;-0.52;100.00
46087;BME280;31824;49.648;8.640;2023-04-05T04:01:08;100922.13;;;-0.42;100.00
46087;BME280;31824;49.648;8.640;2023-04-05T04:04:10;100920.09;;;-0.15;100.00
46087;BME280;31824;49.648;8.640;2023-04-05T04:07:19;100927.03;;;-0.08;100.00
46087;BME280;31824;49.648;8.640;2023-04-05T04:10:21;100921.38;;;-0.06;100.00
46087;BME280;31824;49.648;8.640;2023-04-05T04:13:26;100924.06;;;-0.17;100.00
46087;BME280;31824;49.648;8.640;2023-04-05T04:16:46;100917.03;;;-0.18;100.00
46087;BME280;31824;49.648;8.640;2023-04-05T04:20:08;100914.88;;;-0.45;100.00
46087;BME280;31824;49.648;8.640;2023-04-05T04:23:35;100915.00;;;-0.68;100.00
46087;BME280;31824;49.648;8.640;2023-04-05T04:27:14;100907.97;;;-0.69;100.00
46087;BME280;31824;49.648;8.640;2023-04-05T04:30:33;100906.97;;;-0.58;100.00
46087;BME280;31824;49.648;8.640;2023-04-05T04:33:43;100896.03;;;-0.08;100.00
46087;BME280;31824;49.648;8.640;2023-04-05T04:37:02;100899.66;;;-0.19;100.00
46087;BME280;31824;49.648;8.640;2023-04-05T04:40:34;100895.28;;;-0.31;100.00
46087;BME280;31824;49.648;8.640;2023-04-05T04:44:01;100905.44;;;-0.39;100.00
46087;BME280;31824;49.648;8.640;2023-04-05T04:47:31;100905.00;;;-0.42;100.00
46087;BME280;31824;49.648;8.640;2023-04-05T04:50:50;100909.72;;;-0.45;100.00
46087;BME280;31824;49.648;8.640;2023-04-05T04:53:57;100907.31;;;-0.38;100.00
46087;BME280;31824;49.648;8.640;2023-04-05T04:57:02;100902.50;;;-0.18;100.00
46087;BME280;31824;49.648;8.640;2023-04-05T05:00:07;100914.31;;;-0.31;100.00
46087;BME280;31824;49.648;8.640;2023-04-05T05:03:17;100910.50;;;-0.27;100.00
46087;BME280;31824;49.648;8.640;2023-04-05T05:06:19;100908.97;;;-0.08;100.00
46087;BME280;31824;49.648;8.640;2023-04-05T05:09:22;100906.75;;;0.06;100.00
46087;BME280;31824;49.648;8.640;2023-04-05T05:12:30;100910.59;;;0.21;100.00
46087;BME280;31824;49.648;8.640;2023-04-05T05:15:34;100905.88;;;0.48;100.00
46087;BME280;31824;49.648;8.640;2023-04-05T05:18:36;100908.72;;;0.69;100.00
46087;BME280;31824;49.648;8.640;2023-04-05T05:21:40;100915.56;;;0.68;100.00
46087;BME280;31824;49.648;8.640;2023-04-05T05:24:43;100914.03;;;0.33;100.00
46087;BME280;31824;49.648;8.640;2023-04-05T05:27:48;100918.41;;;0.15;100.00
46087;BME280;31824;49.648;8.640;2023-04-05T05:30:52;100918.81;;;-0.06;100.00
46087;BME280;31824;49.648;8.640;2023-04-05T05:33:55;100923.59;;;-0.14;100.00
46087;BME280;31824;49.648;8.640;2023-04-05T05:36:57;100930.06;;;-0.35;100.00
46087;BME280;31824;49.648;8.640;2023-04-05T05:39:59;100923.94;;;-0.36;100.00
46087;BME280;31824;49.648;8.640;2023-04-05T05:43:03;100926.78;;;-0.40;100.00
46087;BME280;31824;49.648;8.640;2023-04-05T05:46:05;100937.59;;;-0.37;100.00
46087;BME280;31824;49.648;8.640;2023-04-05T05:49:07;100932.44;;;-0.37;100.00
46087;BME280;31824;49.648;8.640;2023-04-05T05:52:10;100925.69;;;-0.47;100.00
46087;BME280;31824;49.648;8.640;2023-04-05T05:55:11;100925.25;;;-0.56;100.00
46087;BME280;31824;49.648;8.640;2023-04-05T05:58:14;100930.38;;;-0.45;100.00
46087;BME280;31824;49.648;8.640;2023-04-05T06:01:21;100924.03;;;-0.47;100.00
46087;BME280;31824;49.648;8.640;2023-04-05T06:04:29;100932.22;;;-0.44;100.00
46087;BME280;31824;49.648;8.640;2023-04-05T06:07:36;100935.00;;;-0.37;100.00
46087;BME280;31824;49.648;8.640;2023-04-05T06:10:39;100937.84;;;-0.41;100.00
46087;BME280;31824;49.648;8.640;2023-04-05T06:13:44;100940.44;;;-0.41;100.00
46087;BME280;31824;49.648;8.640;2023-04-05T06:16:46;100934.09;;;-0.43;100.00
46087;BME280;31824;49.648;8.640;2023-04-05T06:19:48;100938.31;;;-0.38;100.00
46087;BME280;31824;49.648;8.640;2023-04-05T06:22:53;100939.91;;;-0.32;100.00
46087;BME280;31824;49.648;8.640;2023-04-05T06:25:55;100936.38;;;-0.33;100.00
46087;BME280;31824;49.648;8.640;2023-04-05T06:29:07;100943.63;;;-0.30;100.00
46087;BME280;31824;49.648;8.640;2023-04-05T06:32:09;100941.44;;;-0.16;100.00
46087;BME280;31824;49.648;8.640;2023-04-05T06:35:11;100940.03;;;-0.20;100.00
46087;BME280;31824;49.648;8.640;2023-04-05T06:38:17;100937.03;;;-0.23;100.00
46087;BME280;31824;49.648;8.640;2023-04-05T06:41:20;100931.59;;;-0.19;100.00
46087;BME280;31824;49.648;8.640;2023-04-05T06:44:23;100930.38;;;-0.09;100.00
46087;BME280;31824;49.648;8.640;2023-04-05T06:47:25;100928.69;;;-0.09;100.00
46087;BME280;31824;49.648;8.640;2023-04-05T06:50:27;100930.16;;;0.13;100.00
46087;BME280;31824;49.648;8.640;2023-04-05T06:53:30;100934.03;;;0.28;100.00
46087;BME280;31824;49.648;8.640;2023-04-05T06:56:32;100928.78;;;0.40;100.00
46087;BME280;31824;49.648;8.640;2023-04-05T06:59:36;100929.47;;;0.39;100.00
46087;BME280;31824;49.648;8.640;2023-04-05T07:02:38;100923.06;;;0.48;100.00
46087;BME280;31824;49.648;8.640;2023-04-05T07:05:49;100941.44;;;0.62;100.00
46087;BME280;31824;49.648;8.640;2023-04-05T07:08:55;100933.38;;;0.72;100.00
46087;BME280;31824;49.648;8.640;2023-04-05T07:11:57;100941.00;;;0.83;100.00
46087;BME280;31824;49.648;8.640;2023-04-05T07:15:01;100930.16;;;1.05;100.00
46087;BME280;31824;49.648;8.640;2023-04-05T07:18:04;100936.53;;;1.25;100.00
46087;BME280;31824;49.648;8.640;2023-04-05T07:21:11;100935.56;;;1.43;100.00
46087;BME280;31824;49.648;8.640;2023-04-05T07:24:13;100928.78;;;1.57;100.00
46087;BME280;31824;49.648;8.640;2023-04-05T07:27:15;100921.91;;;1.76;100.00
46087;BME280;31824;49.648;8.640;2023-04-05T07:30:18;100924.13;;;1.98;100.00
46087;BME280;31824;49.648;8.640;2023-04-05T07:33:22;100923.81;;;2.34;100.00
46087;BME280;31824;49.648;8.640;2023-04-05T07:36:25;100927.03;;;2.64;100.00
46087;BME280;31824;49.648;8.640;2023-04-05T07:39:29;100920.47;;;2.74;100.00
46087;BME280;31824;49.648;8.640;2023-04-05T07:42:34;100924.38;;;3.03;100.00
46087;BME280;31824;49.648;8.640;2023-04-05T07:45:38;100919.88;;;3.15;100.00
46087;BME280;31824;49.648;8.640;2023-04-05T07:48:39;100921.38;;;3.33;100.00
46087;BME280;31824;49.648;8.640;2023-04-05T07:51:41;100919.41;;;3.37;100.00
46087;BME280;31824;49.648;8.640;2023-04-05T07:54:43;100921.31;;;3.79;100.00
46087;BME280;31824;49.648;8.640;2023-04-05T07:57:46;100925.63;;;3.85;100.00
46087;BME280;31824;49.648;8.640;2023-04-05T08:00:58;100921.50;;;4.00;100.00
46087;BME280;31824;49.648;8.640;2023-04-05T08:04:01;100920.13;;;4.17;100.00
46087;BME280;31824;49.648;8.640;2023-04-05T08:07:04;100922.78;;;4.24;100.00
46087;BME280;31824;49.648;8.640;2023-04-05T08:10:07;100923.66;;;4.45;100.00
46087;BME280;31824;49.648;8.640;2023-04-05T08:13:28;100923.44;;;4.63;100.00
46087;BME280;31824;49.648;8.640;2023-04-05T08:16:37;100924.97;;;4.76;100.00
46087;BME280;31824;49.648;8.640;2023-04-05T08:19:39;100924.63;;;4.80;100.00
46087;BME280;31824;49.648;8.640;2023-04-05T08:22:41;100924.94;;;5.03;100.00
46087;BME280;31824;49.648;8.640;2023-04-05T08:25:44;100918.44;;;5.06;100.00
46087;BME280;31824;49.648;8.640;2023-04-05T08:28:46;100912.16;;;5.12;100.00
46087;BME280;31824;49.648;8.640;2023-04-05T08:31:50;100914.75;;;5.12;100.00
46087;BME280;31824;49.648;8.640;2023-04-05T08:34:52;100918.09;;;5.18;100.00
46087;BME280;31824;49.648;8.640;2023-04-05T08:37:53;100918.53;;;5.21;100.00
46087;BME280;31824;49.648;8.640;2023-04-05T08:40:57;100908.72;;;5.47;100.00
46087;BME280;31824;49.648;8.640;2023-04-05T08:44:09;100902.22;;;5.72;100.00
46087;BME280;31824;49.648;8.640;2023-04-05T08:47:15;100903.56;;;5.69;100.00
46087;BME280;31824;49.648;8.640;2023-04-05T08:50:20;100909.28;;;5.45;100.00
46087;BME280;31824;49.648;8.640;2023-04-05T08:53:22;100907.63;;;5.60;100.00
46087;BME280;31824;49.648;8.640;2023-04-05T08:56:26;100903.00;;;5.71;100.00
46087;BME280;31824;49.648;8.640;2023-04-05T08:59:49;100901.34;;;5.86;100.00
46087;BME280;31824;49.648;8.640;2023-04-05T09:02:54;100902.63;;;5.90;100.00
46087;BME280;31824;49.648;8.640;2023-04-05T09:05:58;100901.94;;;6.05;100.00
46087;BME280;31824;49.648;8.640;2023-04-05T09:09:00;100904.69;;;6.21;100.00
46087;BME280;31824;49.648;8.640;2023-04-05T09:12:07;100898.75;;;6.15;100.00
46087;BME280;31824;49.648;8.640;2023-04-05T09:15:09;100902.69;;;6.19;100.00
46087;BME280;31824;49.648;8.640;2023-04-05T09:18:13;100905.09;;;6.24;100.00
46087;BME280;31824;49.648;8.640;2023-04-05T09:21:27;100904.34;;;6.33;100.00
46087;BME280;31824;49.648;8.640;2023-04-05T09:24:31;100895.78;;;6.12;100.00
46087;BME280;31824;49.648;8.640;2023-04-05T09:27:53;100898.53;;;6.28;100.00
46087;BME280;31824;49.648;8.640;2023-04-05T09:30:56;100899.25;;;6.56;100.00
46087;BME280;31824;49.648;8.640;2023-04-05T09:34:01;100894.00;;;6.63;100.00
46087;BME280;31824;49.648;8.640;2023-04-05T09:37:11;100896.66;;;6.41;100.00
46087;BME280;31824;49.648;8.640;2023-04-05T09:40:18;100885.75;;;6.82;100.00
46087;BME280;31824;49.648;8.640;2023-04-05T09:43:37;100887.88;;;6.63;100.00
46087;BME280;31824;49.648;8.640;2023-04-05T09:46:39;100884.47;;;6.78;100.00
46087;BME280;31824;49.648;8.640;2023-04-05T09:49:44;100882.97;;;6.73;100.00
46087;BME280;31824;49.648;8.640;2023-04-05T09:52:46;100888.94;;;6.79;100.00
46087;BME280;31824;49.648;8.640;2023-04-05T09:55:49;100880.31;;;6.87;100.00
46087;BME280;31824;49.648;8.640;2023-04-05T09:58:52;100877.28;;;7.06;100.00
46087;BME280;31824;49.648;8.640;2023-04-05T10:01:54;100878.06;;;6.98;100.00
46087;BME280;31824;49.648;8.640;2023-04-05T10:05:04;100876.56;;;7.30;100.00
46087;BME280;31824;49.648;8.640;2023-04-05T10:08:07;100882.91;;;7.32;100.00
46087;BME280;31824;49.648;8.640;2023-04-05T10:11:09;100883.00;;;7.48;100.00
46087;BME280;31824;49.648;8.640;2023-04-05T10:14:12;100883.31;;;7.58;100.00
46087;BME280;31824;49.648;8.640;2023-04-05T10:17:18;100881.66;;;7.52;100.00
46087;BME280;31824;49.648;8.640;2023-04-05T10:20:24;100880.84;;;7.60;100.00
46087;BME280;31824;49.648;8.640;2023-04-05T10:23:30;100877.66;;;7.63;100.00
46087;BME280;31824;49.648;8.640;2023-04-05T10:26:39;100881.00;;;7.69;100.00
46087;BME280;31824;49.648;8.640;2023-04-05T10:29:50;100878.38;;;7.69;100.00
46087;BME280;31824;49.648;8.640;2023-04-05T10:33:02;100871.16;;;7.29;100.00
46087;BME280;31824;49.648;8.640;2023-04-05T10:36:14;100870.13;;;7.50;100.00
46087;BME280;31824;49.648;8.640;2023-04-05T10:39:22;100870.31;;;7.98;100.00
46087;BME280;31824;49.648;8.640;2023-04-05T10:42:27;100859.94;;;8.30;100.00
46087;BME280;31824;49.648;8.640;2023-04-05T10:45:35;100857.03;;;8.58;100.00
46087;BME280;31824;49.648;8.640;2023-04-05T10:48:43;100850.41;;;8.07;100.00
46087;BME280;31824;49.648;8.640;2023-04-05T10:51:50;100861.41;;;8.51;100.00
46087;BME280;31824;49.648;8.640;2023-04-05T10:54:53;100853.09;;;8.23;100.00
46087;BME280;31824;49.648;8.640;2023-04-05T10:57:58;100858.81;;;8.83;100.00
46087;BME280;31824;49.648;8.640;2023-04-05T11:01:01;100847.44;;;8.43;100.00
46087;BME280;31824;49.648;8.640;2023-04-05T11:04:10;100843.84;;;8.50;100.00
46087;BME280;31824;49.648;8.640;2023-04-05T11:07:15;100843.38;;;8.22;100.00
46087;BME280;31824;49.648;8.640;2023-04-05T11:10:17;100842.16;;;8.66;100.00
46087;BME280;31824;49.648;8.640;2023-04-05T11:13:20;100841.81;;;8.95;100.00
46087;BME280;31824;49.648;8.640;2023-04-05T11:16:23;100834.59;;;8.37;100.00
46087;BME280;31824;49.648;8.640;2023-04-05T11:19:48;100826.44;;;8.82;100.00
46087;BME280;31824;49.648;8.640;2023-04-05T11:22:54;100827.00;;;9.11;100.00
46087;BME280;31824;49.648;8.640;2023-04-05T11:26:03;100822.03;;;8.74;100.00
46087;BME280;31824;49.648;8.640;2023-04-05T11:29:06;100828.50;;;9.09;100.00
46087;BME280;31824;49.648;8.640;2023-04-05T11:32:11;100823.94;;;9.16;100.00
46087;BME280;31824;49.648;8.640;2023-04-05T11:35:14;100829.31;;;9.33;100.00
46087;BME280;31824;49.648;8.640;2023-04-05T11:38:21;100829.63;;;8.95;100.00
46087;BME280;31824;49.648;8.640;2023-04-05T11:41:24;100819.47;;;8.99;100.00
46087;BME280;31824;49.648;8.640;2023-04-05T11:44:42;100820.50;;;8.92;99.05
46087;BME280;31824;49.648;8.640;2023-04-05T11:47:44;100818.09;;;9.43;99.55
46087;BME280;31824;49.648;8.640;2023-04-05T11:50:46;100808.66;;;9.94;99.38
46087;BME280;31824;49.648;8.640;2023-04-05T11:53:52;100804.38;;;9.70;97.18
46087;BME280;31824;49.648;8.640;2023-04-05T11:56:54;100807.50;;;9.50;95.70
46087;BME280;31824;49.648;8.640;2023-04-05T11:59:56;100804.72;;;9.49;95.71
46087;BME280;31824;49.648;8.640;2023-04-05T12:02:59;100802.59;;;9.87;100.00
46087;BME280;31824;49.648;8.640;2023-04-05T12:06:02;100803.53;;;9.62;97.26
46087;BME280;31824;49.648;8.640;2023-04-05T12:09:14;100798.69;;;9.74;98.22
46087;BME280;31824;49.648;8.640;2023-04-05T12:12:17;100797.41;;;10.13;98.71
46087;BME280;31824;49.648;8.640;2023-04-05T12:15:19;100796.25;;;9.26;95.56
46087;BME280;31824;49.648;8.640;2023-04-05T12:18:23;100797.47;;;9.79;97.83
46087;BME280;31824;49.648;8.640;2023-04-05T12:21:26;100780.19;;;11.38;100.00
46087;BME280;31824;49.648;8.640;2023-04-05T12:24:30;100779.19;;;10.06;93.71
46087;BME280;31824;49.648;8.640;2023-04-05T12:27:32;100782.94;;;9.83;99.22
46087;BME280;31824;49.648;8.640;2023-04-05T12:30:34;100771.00;;;10.80;89.62
46087;BME280;31824;49.648;8.640;2023-04-05T12:33:40;100778.09;;;11.07;91.42
46087;BME280;31824;49.648;8.640;2023-04-05T12:36:44;100778.31;;;11.37;82.03
46087;BME280;31824;49.648;8.640;2023-04-05T12:39:55;100760.63;;;10.64;79.06
46087;BME280;31824;49.648;8.640;2023-04-05T12:43:00;100761.66;;;11.19;85.57
46087;BME280;31824;49.648;8.640;2023-04-05T12:46:08;100768.94;;;10.51;96.56
46087;BME280;31824;49.648;8.640;2023-04-05T12:49:11;100759.53;;;10.97;95.93
46087;BME280;31824;49.648;8.640;2023-04-05T12:52:18;100756.91;;;10.53;86.03
46087;BME280;31824;49.648;8.640;2023-04-05T12:55:23;100752.22;;;11.66;92.47
46087;BME280;31824;49.648;8.640;2023-04-05T12:58:32;100757.22;;;11.91;87.27
46087;BME280;31824;49.648;8.640;2023-04-05T13:01:40;100748.09;;;10.79;87.32
46087;BME280;31824;49.648;8.640;2023-04-05T13:04:45;100746.38;;;10.97;80.71
46087;BME280;31824;49.648;8.640;2023-04-05T13:07:49;100735.13;;;10.54;84.26
46087;BME280;31824;49.648;8.640;2023-04-05T13:10:53;100740.53;;;11.54;81.61
46087;BME280;31824;49.648;8.640;2023-04-05T13:14:00;100733.06;;;11.13;81.66
46087;BME280;31824;49.648;8.640;2023-04-05T13:17:02;100730.59;;;11.06;81.31
46087;BME280;31824;49.648;8.640;2023-04-05T13:20:05;100732.84;;;11.74;78.78
46087;BME280;31824;49.648;8.640;2023-04-05T13:23:08;100727.63;;;11.93;78.32
46087;BME280;31824;49.648;8.640;2023-04-05T13:26:16;100718.50;;;11.90;86.20
46087;BME280;31824;49.648;8.640;2023-04-05T13:29:17;100709.66;;;12.45;80.90
46087;BME280;31824;49.648;8.640;2023-04-05T13:32:19;100708.03;;;12.37;75.42
46087;BME280;31824;49.648;8.640;2023-04-05T13:35:21;100714.78;;;11.96;76.11
46087;BME280;31824;49.648;8.640;2023-04-05T13:38:23;100713.06;;;11.24;74.59
46087;BME280;31824;49.648;8.640;2023-04-05T13:41:27;100709.28;;;11.85;79.48
46087;BME280;31824;49.648;8.640;2023-04-05T13:44:29;100713.22;;;12.45;76.20
46087;BME280;31824;49.648;8.640;2023-04-05T13:47:30;100710.88;;;12.48;77.64
46087;BME280;31824;49.648;8.640;2023-04-05T13:50:32;100706.03;;;12.34;70.87
46087;BME280;31824;49.648;8.640;2023-04-05T13:53:35;100697.72;;;11.65;74.00
46087;BME280;31824;49.648;8.640;2023-04-05T13:56:41;100702.34;;;11.76;79.23
46087;BME280;31824;49.648;8.640;2023-04-05T13:59:43;100689.00;;;11.75;76.52
46087;BME280;31824;49.648;8.640;2023-04-05T14:02:44;100688.88;;;11.45;73.77
46087;BME280;31824;49.648;8.640;2023-04-05T14:05:47;100687.13;;;11.82;78.78
46087;BME280;31824;49.648;8.640;2023-04-05T14:08:52;100690.69;;;12.11;70.17
46087;BME280;31824;49.648;8.640;2023-04-05T14:11:59;100687.53;;;13.21;63.79
46087;BME280;31824;49.648;8.640;2023-04-05T14:15:06;100676.66;;;12.59;60.55
46087;BME280;31824;49.648;8.640;2023-04-05T14:18:08;100671.53;;;12.03;75.91
46087;BME280;31824;49.648;8.640;2023-04-05T14:21:10;100683.66;;;12.39;65.56
46087;BME280;31824;49.648;8.640;2023-04-05T14:24:13;100681.81;;;12.19;66.10
46087;BME280;31824;49.648;8.640;2023-04-05T14:27:16;100674.94;;;13.37;59.43
46087;BME280;31824;49.648;8.640;2023-04-05T14:30:18;100671.91;;;12.36;61.75
46087;BME280;31824;49.648;8.640;2023-04-05T14:33:22;100671.78;;;12.15;60.72
46087;BME280;31824;49.648;8.640;2023-04-05T14:36:26;100670.34;;;11.99;61.20
46087;BME280;31824;49.648;8.640;2023-04-05T14:39:30;100676.03;;;12.61;63.10
46087;BME280;31824;49.648;8.640;2023-04-05T14:42:35;100677.03;;;12.53;57.85
46087;BME280;31824;49.648;8.640;2023-04-05T14:45:52;100669.78;;;12.99;57.98
46087;BME280;31824;49.648;8.640;2023-04-05T14:48:55;100669.91;;;13.90;57.32
46087;BME280;31824;49.648;8.640;2023-04-05T14:51:57;100669.75;;;13.99;59.71
46087;BME280;31824;49.648;8.640;2023-04-05T14:54:59;100665.50;;;14.95;56.40
46087;BME280;31824;49.648;8.640;2023-04-05T14:58:03;100659.72;;;14.26;56.56
46087;BME280;31824;49.648;8.640;2023-04-05T15:01:06;100646.63;;;14.27;49.10
46087;BME280;31824;49.648;8.640;2023-04-05T15:04:11;100653.34;;;12.82;56.58
46087;BME280;31824;49.648;8.640;2023-04-05T15:07:14;100644.69;;;13.33;55.03
46087;BME280;31824;49.648;8.640;2023-04-05T15:10:16;100647.97;;;14.01;62.22
46087;BME280;31824;49.648;8.640;2023-04-05T15:13:24;100646.75;;;12.88;55.11
46087;BME280;31824;49.648;8.640;2023-04-05T15:16:31;100652.09;;;12.49;61.10
46087;BME280;31824;49.648;8.640;2023-04-05T15:19:33;100642.19;;;12.47;56.29
46087;BME280;31824;49.648;8.640;2023-04-05T15:22:37;100645.84;;;14.18;54.97
46087;BME280;31824;49.648;8.640;2023-04-05T15:25:41;100639.88;;;13.48;55.85
46087;BME280;31824;49.648;8.640;2023-04-05T15:28:46;100638.84;;;14.08;52.45
46087;BME280;31824;49.648;8.640;2023-04-05T15:31:48;100637.09;;;14.09;50.49
46087;BME280;31824;49.648;8.640;2023-04-05T15:34:51;100638.31;;;13.81;52.19
46087;BME280;31824;49.648;8.640;2023-04-05T15:37:53;100637.53;;;12.82;56.61
46087;BME280;31824;49.648;8.640;2023-04-05T15:40:56;100635.94;;;13.14;55.74
46087;BME280;31824;49.648;8.640;2023-04-05T15:44:05;100637.38;;;13.60;55.27
46087;BME280;31824;49.648;8.640;2023-04-05T15:47:08;100631.94;;;12.69;69.16
46087;BME280;31824;49.648;8.640;2023-04-05T15:50:15;100636.78;;;12.45;59.06
46087;BME280;31824;49.648;8.640;2023-04-05T15:53:27;100629.63;;;12.15;59.19
46087;BME280;31824;49.648;8.640;2023-04-05T15:56:34;100629.69;;;13.43;55.01
46087;BME280;31824;49.648;8.640;2023-04-05T15:59:41;100630.72;;;12.65;56.32
46087;BME280;31824;49.648;8.640;2023-04-05T16:02:46;100625.16;;;13.31;60.01
46087;BME280;31824;49.648;8.640;2023-04-05T16:05:50;100630.91;;;12.77;51.95
46087;BME280;31824;49.648;8.640;2023-04-05T16:08:52;100626.25;;;12.45;54.46
46087;BME280;31824;49.648;8.640;2023-04-05T16:11:53;100630.03;;;13.27;50.92